sensor_id;sensor_type;location;lat;lon;timestamp;pressure;altitude;pressure_sealevel;temperature;humidity
38806;BME280;25635;51.146;17.162;2022-11-13T00:00:36;101715.58;;;8.75;83.35
38806;BME280;25635;51.146;17.162;2022-11-13T00:42:01;101725.72;;;8.62;83.47
38806;BME280;25635;51.146;17.162;2022-11-13T00:44:27;101717.89;;;8.62;83.51
38806;BME280;25635;51.146;17.162;2022-11-13T00:46:53;101718.77;;;8.63;83.52
38806;BME280;25635;51.146;17.162;2022-11-13T00:49:19;101717.51;;;8.64;83.62
38806;BME280;25635;51.146;17.162;2022-11-13T00:51:45;101710.99;;;8.64;83.53
38806;BME280;25635;51.146;17.162;2022-11-13T00:54:11;101710.50;;;8.62;83.49
38806;BME280;25635;51.146;17.162;2022-11-13T00:56:37;101703.89;;;8.59;83.47
38806;BME280;25635;51.146;17.162;2022-11-13T00:59:04;101702.63;;;8.60;83.59
38806;BME280;25635;51.146;17.162;2022-11-13T01:01:30;101698.29;;;8.61;83.51
38806;BME280;25635;51.146;17.162;2022-11-13T01:03:56;101703.55;;;8.62;83.49
38806;BME280;25635;51.146;17.162;2022-11-13T01:06:25;101697.91;;;8.63;83.53
38806;BME280;25635;51.146;17.162;2022-11-13T01:08:56;101692.30;;;8.65;83.50
38806;BME280;25635;51.146;17.162;2022-11-13T01:11:26;101696.65;;;8.64;83.45
38806;BME280;25635;51.146;17.162;2022-11-13T01:13:54;101698.34;;;8.62;83.44
38806;BME280;25635;51.146;17.162;2022-11-13T01:16:24;101693.94;;;8.60;83.55
38806;BME280;25635;51.146;17.162;2022-11-13T01:18:55;101686.02;;;8.57;83.58
38806;BME280;25635;51.146;17.162;2022-11-13T01:21:24;101682.05;;;8.54;83.61
38806;BME280;25635;51.146;17.162;2022-11-13T01:23:52;101674.19;;;8.52;83.61
38806;BME280;25635;51.146;17.162;2022-11-13T01:26:26;101676.80;;;8.52;83.57
38806;BME280;25635;51.146;17.162;2022-11-13T01:28:51;101671.58;;;8.52;83.58
38806;BME280;25635;51.146;17.162;2022-11-13T01:31:20;101673.31;;;8.51;83.65
38806;BME280;25635;51.146;17.162;2022-11-13T01:33:48;101669.78;;;8.49;83.60
38806;BME280;25635;51.146;17.162;2022-11-13T01:36:21;101667.95;;;8.45;83.69
38806;BME280;25635;51.146;17.162;2022-11-13T01:38:49;101666.16;;;8.44;83.74
38806;BME280;25635;51.146;17.162;2022-11-13T01:41:22;101664.37;;;8.42;83.78
38806;BME280;25635;51.146;17.162;2022-11-13T01:43:57;101661.77;;;8.42;83.80
38806;BME280;25635;51.146;17.162;2022-11-13T01:51:41;101656.37;;;8.36;83.46
38806;BME280;25635;51.146;17.162;2022-11-13T01:54:14;101653.27;;;8.33;83.47
38806;BME280;25635;51.146;17.162;2022-11-13T01:56:52;101651.97;;;8.33;83.54
38806;BME280;25635;51.146;17.162;2022-11-13T01:59:26;101646.28;;;8.32;83.65
38806;BME280;25635;51.146;17.162;2022-11-13T02:01:57;101645.45;;;8.33;83.73
38806;BME280;25635;51.146;17.162;2022-11-13T02:04:24;101644.48;;;8.29;83.70
38806;BME280;25635;51.146;17.162;2022-11-13T02:06:54;101640.52;;;8.26;83.75
38806;BME280;25635;51.146;17.162;2022-11-13T02:09:25;101639.98;;;8.22;83.54
38806;BME280;25635;51.146;17.162;2022-11-13T02:11:53;101638.14;;;8.18;83.60
38806;BME280;25635;51.146;17.162;2022-11-13T02:14:22;101636.73;;;8.14;83.53
38806;BME280;25635;51.146;17.162;2022-11-13T02:16:52;101634.47;;;8.10;83.43
38806;BME280;25635;51.146;17.162;2022-11-13T02:19:30;101640.98;;;8.10;83.42
38806;BME280;25635;51.146;17.162;2022-11-13T02:24:53;101629.05;;;8.02;83.29
38806;BME280;25635;51.146;17.162;2022-11-13T02:30:25;101637.96;;;7.95;83.58
38806;BME280;25635;51.146;17.162;2022-11-13T02:32:54;101631.45;;;7.95;83.90
38806;BME280;25635;51.146;17.162;2022-11-13T02:35:32;101633.67;;;7.97;83.83
38806;BME280;25635;51.146;17.162;2022-11-13T02:37:59;101629.77;;;7.97;83.88
38806;BME280;25635;51.146;17.162;2022-11-13T02:40:28;101625.08;;;7.99;83.81
38806;BME280;25635;51.146;17.162;2022-11-13T02:42:55;101626.44;;;8.02;83.89
38806;BME280;25635;51.146;17.162;2022-11-13T02:45:22;101623.02;;;8.03;83.77
38806;BME280;25635;51.146;17.162;2022-11-13T02:47:48;101612.59;;;8.03;83.75
38806;BME280;25635;51.146;17.162;2022-11-13T02:50:15;101603.42;;;8.02;83.62
38806;BME280;25635;51.146;17.162;2022-11-13T02:52:41;101604.25;;;8.01;83.72
38806;BME280;25635;51.146;17.162;2022-11-13T02:55:08;101603.86;;;8.01;83.83
38806;BME280;25635;51.146;17.162;2022-11-13T02:57:34;101601.69;;;8.02;83.92
38806;BME280;25635;51.146;17.162;2022-11-13T03:00:01;101606.47;;;8.03;83.68
38806;BME280;25635;51.146;17.162;2022-11-13T03:02:28;101599.56;;;8.03;83.76
38806;BME280;25635;51.146;17.162;2022-11-13T03:04:54;101600.81;;;8.02;83.69
38806;BME280;25635;51.146;17.162;2022-11-13T03:07:20;101602.61;;;8.04;83.71
38806;BME280;25635;51.146;17.162;2022-11-13T03:09:47;101596.44;;;8.01;83.63
38806;BME280;25635;51.146;17.162;2022-11-13T03:12:13;101585.67;;;8.04;83.88
38806;BME280;25635;51.146;17.162;2022-11-13T03:14:39;101587.84;;;8.05;83.80
38806;BME280;25635;51.146;17.162;2022-11-13T03:17:05;101589.54;;;8.03;83.81
38806;BME280;25635;51.146;17.162;2022-11-13T03:19:32;101586.88;;;8.00;83.80
38806;BME280;25635;51.146;17.162;2022-11-13T03:21:58;101586.83;;;7.98;83.84
38806;BME280;25635;51.146;17.162;2022-11-13T03:24:24;101584.70;;;8.01;83.94
38806;BME280;25635;51.146;17.162;2022-11-13T03:26:50;101586.92;;;8.01;83.81
38806;BME280;25635;51.146;17.162;2022-11-13T03:29:16;101590.39;;;8.02;83.78
38806;BME280;25635;51.146;17.162;2022-11-13T03:31:43;101580.84;;;8.02;83.86
38806;BME280;25635;51.146;17.162;2022-11-13T03:34:09;101580.94;;;8.05;83.86
38806;BME280;25635;51.146;17.162;2022-11-13T03:36:35;101577.91;;;8.06;83.88
38806;BME280;25635;51.146;17.162;2022-11-13T03:39:01;101577.91;;;8.06;83.81
38806;BME280;25635;51.146;17.162;2022-11-13T03:41:27;101579.16;;;8.04;83.88
38806;BME280;25635;51.146;17.162;2022-11-13T03:43:53;101580.80;;;8.01;83.88
38806;BME280;25635;51.146;17.162;2022-11-13T03:46:20;101566.84;;;7.97;83.94
38806;BME280;25635;51.146;17.162;2022-11-13T03:48:46;101566.32;;;7.95;83.95
38806;BME280;25635;51.146;17.162;2022-11-13T03:51:13;101565.45;;;7.94;84.04
38806;BME280;25635;51.146;17.162;2022-11-13T03:53:39;101559.42;;;7.97;84.13
38806;BME280;25635;51.146;17.162;2022-11-13T03:56:05;101558.17;;;7.98;84.12
38806;BME280;25635;51.146;17.162;2022-11-13T03:58:32;101561.73;;;8.02;84.10
38806;BME280;25635;51.146;17.162;2022-11-13T04:00:58;101562.22;;;8.04;84.08
38806;BME280;25635;51.146;17.162;2022-11-13T04:03:24;101558.41;;;8.07;84.15
38806;BME280;25635;51.146;17.162;2022-11-13T04:05:51;101558.89;;;8.10;84.10
38806;BME280;25635;51.146;17.162;2022-11-13T04:08:17;101561.50;;;8.10;84.05
38806;BME280;25635;51.146;17.162;2022-11-13T04:10:44;101561.93;;;8.09;84.06
38806;BME280;25635;51.146;17.162;2022-11-13T04:13:11;101572.31;;;8.08;83.92
38806;BME280;25635;51.146;17.162;2022-11-13T04:15:37;101562.77;;;8.08;83.98
38806;BME280;25635;51.146;17.162;2022-11-13T04:18:04;101564.49;;;8.08;83.96
38806;BME280;25635;51.146;17.162;2022-11-13T04:20:30;101567.59;;;8.10;83.92
38806;BME280;25635;51.146;17.162;2022-11-13T04:22:56;101577.19;;;8.13;83.95
38806;BME280;25635;51.146;17.162;2022-11-13T04:25:24;101583.33;;;8.15;84.04
38806;BME280;25635;51.146;17.162;2022-11-13T04:27:51;101583.33;;;8.15;83.95
38806;BME280;25635;51.146;17.162;2022-11-13T04:30:18;101573.33;;;8.15;83.98
38806;BME280;25635;51.146;17.162;2022-11-13T04:32:45;101579.89;;;8.16;84.01
38806;BME280;25635;51.146;17.162;2022-11-13T04:35:11;101578.59;;;8.16;83.90
38806;BME280;25635;51.146;17.162;2022-11-13T04:37:37;101576.80;;;8.14;83.76
38806;BME280;25635;51.146;17.162;2022-11-13T04:40:04;101578.98;;;8.16;83.85
38806;BME280;25635;51.146;17.162;2022-11-13T04:42:30;101582.06;;;8.17;83.92
38806;BME280;25635;51.146;17.162;2022-11-13T04:45:19;101576.90;;;8.18;83.79
38806;BME280;25635;51.146;17.162;2022-11-13T04:47:48;101576.04;;;8.19;83.82
38806;BME280;25635;51.146;17.162;2022-11-13T04:50:16;101582.11;;;8.18;83.88
38806;BME280;25635;51.146;17.162;2022-11-13T04:52:43;101585.11;;;8.18;83.91
38806;BME280;25635;51.146;17.162;2022-11-13T04:55:10;101579.80;;;8.13;83.79
38806;BME280;25635;51.146;17.162;2022-11-13T04:57:36;101581.48;;;8.11;83.80
38806;BME280;25635;51.146;17.162;2022-11-13T05:00:04;101583.17;;;8.09;83.66
38806;BME280;25635;51.146;17.162;2022-11-13T05:02:32;101582.30;;;8.08;83.87
38806;BME280;25635;51.146;17.162;2022-11-13T05:04:58;101580.56;;;8.09;83.93
38806;BME280;25635;51.146;17.162;2022-11-13T05:07:24;101579.31;;;8.10;83.87
38806;BME280;25635;51.146;17.162;2022-11-13T05:09:51;101585.40;;;8.11;83.89
38806;BME280;25635;51.146;17.162;2022-11-13T05:12:19;101579.31;;;8.10;83.91
38806;BME280;25635;51.146;17.162;2022-11-13T05:14:45;101577.52;;;8.08;83.95
38806;BME280;25635;51.146;17.162;2022-11-13T05:17:11;101580.13;;;8.08;84.00
38806;BME280;25635;51.146;17.162;2022-11-13T05:19:38;101577.05;;;8.07;83.99
38806;BME280;25635;51.146;17.162;2022-11-13T05:22:05;101580.95;;;8.07;84.05
38806;BME280;25635;51.146;17.162;2022-11-13T05:24:31;101574.42;;;8.05;84.02
38806;BME280;25635;51.146;17.162;2022-11-13T05:26:58;101583.60;;;8.08;84.09
38806;BME280;25635;51.146;17.162;2022-11-13T05:29:24;101588.44;;;8.10;84.09
38806;BME280;25635;51.146;17.162;2022-11-13T05:31:50;101584.09;;;8.11;84.04
38806;BME280;25635;51.146;17.162;2022-11-13T05:34:16;101584.14;;;8.12;84.09
38806;BME280;25635;51.146;17.162;2022-11-13T05:36:43;101582.41;;;8.13;84.14
38806;BME280;25635;51.146;17.162;2022-11-13T05:39:10;101573.27;;;8.11;84.12
38806;BME280;25635;51.146;17.162;2022-11-13T05:41:36;101571.92;;;8.10;84.10
38806;BME280;25635;51.146;17.162;2022-11-13T05:44:02;101571.05;;;8.09;84.15
38806;BME280;25635;51.146;17.162;2022-11-13T05:46:29;101572.80;;;8.10;84.16
38806;BME280;25635;51.146;17.162;2022-11-13T05:48:57;101572.36;;;8.09;84.03
38806;BME280;25635;51.146;17.162;2022-11-13T05:51:28;101567.53;;;8.07;83.99
38806;BME280;25635;51.146;17.162;2022-11-13T05:53:56;101568.41;;;8.08;84.07
38806;BME280;25635;51.146;17.162;2022-11-13T05:56:25;101568.41;;;8.08;84.03
38806;BME280;25635;51.146;17.162;2022-11-13T05:58:54;101569.66;;;8.06;84.04
38806;BME280;25635;51.146;17.162;2022-11-13T06:01:40;101571.73;;;8.02;84.00
38806;BME280;25635;51.146;17.162;2022-11-13T06:04:01;101564.25;;;7.99;84.11
38806;BME280;25635;51.146;17.162;2022-11-13T06:06:30;101567.77;;;7.99;84.19
38806;BME280;25635;51.146;17.162;2022-11-13T06:08:58;101559.09;;;8.00;84.22
38806;BME280;25635;51.146;17.162;2022-11-13T06:11:27;101554.64;;;7.96;84.09
38806;BME280;25635;51.146;17.162;2022-11-13T06:13:55;101556.38;;;7.96;83.98
38806;BME280;25635;51.146;17.162;2022-11-13T06:16:32;101558.06;;;7.94;84.14
38806;BME280;25635;51.146;17.162;2022-11-13T06:19:00;101552.76;;;7.90;84.13
38806;BME280;25635;51.146;17.162;2022-11-13T06:21:30;101553.56;;;7.86;84.22
38806;BME280;25635;51.146;17.162;2022-11-13T06:23:58;101551.73;;;7.84;84.33
38806;BME280;25635;51.146;17.162;2022-11-13T06:26:28;101557.33;;;7.82;84.47
38806;BME280;25635;51.146;17.162;2022-11-13T06:28:58;101554.56;;;7.76;84.44
38806;BME280;25635;51.146;17.162;2022-11-13T06:31:28;101555.37;;;7.73;84.53
38806;BME280;25635;51.146;17.162;2022-11-13T06:33:57;101560.97;;;7.71;84.66
38806;BME280;25635;51.146;17.162;2022-11-13T06:36:26;101559.17;;;7.68;84.72
38806;BME280;25635;51.146;17.162;2022-11-13T06:38:53;101553.86;;;7.64;84.78
38806;BME280;25635;51.146;17.162;2022-11-13T06:41:23;101553.38;;;7.63;84.88
38806;BME280;25635;51.146;17.162;2022-11-13T06:43:50;101556.91;;;7.65;84.98
38806;BME280;25635;51.146;17.162;2022-11-13T06:46:21;101556.08;;;7.66;85.00
38806;BME280;25635;51.146;17.162;2022-11-13T06:48:49;101553.76;;;7.61;85.14
38806;BME280;25635;51.146;17.162;2022-11-13T06:51:24;101556.74;;;7.59;85.16
38806;BME280;25635;51.146;17.162;2022-11-13T06:53:52;101555.00;;;7.58;85.30
38806;BME280;25635;51.146;17.162;2022-11-13T06:56:20;101554.12;;;7.57;85.46
38806;BME280;25635;51.146;17.162;2022-11-13T06:58:46;101553.59;;;7.55;85.54
38806;BME280;25635;51.146;17.162;2022-11-13T07:01:18;101550.55;;;7.54;85.52
38806;BME280;25635;51.146;17.162;2022-11-13T07:03:46;101547.08;;;7.53;85.69
38806;BME280;25635;51.146;17.162;2022-11-13T07:06:19;101544.47;;;7.53;85.75
38806;BME280;25635;51.146;17.162;2022-11-13T07:08:43;101547.47;;;7.53;85.83
38806;BME280;25635;51.146;17.162;2022-11-13T07:11:12;101552.66;;;7.51;85.94
38806;BME280;25635;51.146;17.162;2022-11-13T07:13:41;101553.11;;;7.52;86.10
38806;BME280;25635;51.146;17.162;2022-11-13T07:16:08;101551.36;;;7.51;86.25
38806;BME280;25635;51.146;17.162;2022-11-13T07:18:35;101554.36;;;7.50;86.26
38806;BME280;25635;51.146;17.162;2022-11-13T07:21:06;101548.77;;;7.53;86.33
38806;BME280;25635;51.146;17.162;2022-11-13T07:23:35;101543.99;;;7.52;86.35
38806;BME280;25635;51.146;17.162;2022-11-13T07:26:04;101538.84;;;7.54;86.40
38806;BME280;25635;51.146;17.162;2022-11-13T07:28:30;101541.93;;;7.56;86.31
38806;BME280;25635;51.146;17.162;2022-11-13T07:30:58;101546.81;;;7.60;86.27
38806;BME280;25635;51.146;17.162;2022-11-13T07:33:24;101546.00;;;7.62;86.11
38806;BME280;25635;51.146;17.162;2022-11-13T07:35:55;101545.61;;;7.64;86.01
38806;BME280;25635;51.146;17.162;2022-11-13T07:38:22;101541.76;;;7.66;86.07
38806;BME280;25635;51.146;17.162;2022-11-13T07:40:49;101536.99;;;7.67;85.95
38806;BME280;25635;51.146;17.162;2022-11-13T07:43:15;101535.73;;;7.68;86.14
38806;BME280;25635;51.146;17.162;2022-11-13T07:45:42;101532.70;;;7.69;86.00
38806;BME280;25635;51.146;17.162;2022-11-13T07:48:09;101525.38;;;7.71;86.00
38806;BME280;25635;51.146;17.162;2022-11-13T07:50:37;101522.83;;;7.73;85.70
38806;BME280;25635;51.146;17.162;2022-11-13T07:53:06;101520.71;;;7.76;85.76
38806;BME280;25635;51.146;17.162;2022-11-13T07:55:34;101526.50;;;7.81;85.75
38806;BME280;25635;51.146;17.162;2022-11-13T07:58:01;101524.91;;;7.86;85.92
38806;BME280;25635;51.146;17.162;2022-11-13T08:00:29;101524.20;;;7.94;85.78
38806;BME280;25635;51.146;17.162;2022-11-13T08:02:57;101526.91;;;7.98;85.45
38806;BME280;25635;51.146;17.162;2022-11-13T08:05:26;101532.65;;;8.02;85.28
38806;BME280;25635;51.146;17.162;2022-11-13T08:07:52;101528.84;;;8.07;85.53
38806;BME280;25635;51.146;17.162;2022-11-13T08:10:19;101534.59;;;8.11;85.38
38806;BME280;25635;51.146;17.162;2022-11-13T08:12:46;101533.86;;;8.17;85.39
38806;BME280;25635;51.146;17.162;2022-11-13T08:15:13;101538.30;;;8.21;85.23
38806;BME280;25635;51.146;17.162;2022-11-13T08:17:39;101537.86;;;8.21;84.63
38806;BME280;25635;51.146;17.162;2022-11-13T08:20:06;101540.47;;;8.21;84.60
38806;BME280;25635;51.146;17.162;2022-11-13T08:22:33;101535.73;;;8.22;84.62
38806;BME280;25635;51.146;17.162;2022-11-13T08:25:00;101534.09;;;8.27;84.60
38806;BME280;25635;51.146;17.162;2022-11-13T08:27:26;101536.36;;;8.31;84.44
38806;BME280;25635;51.146;17.162;2022-11-13T08:29:52;101539.02;;;8.34;84.55
38806;BME280;25635;51.146;17.162;2022-11-13T08:32:19;101547.36;;;8.37;84.24
38806;BME280;25635;51.146;17.162;2022-11-13T08:34:47;101546.97;;;8.39;84.25
38806;BME280;25635;51.146;17.162;2022-11-13T08:37:13;101542.67;;;8.41;84.33
38806;BME280;25635;51.146;17.162;2022-11-13T08:39:39;101538.84;;;8.44;84.36
38806;BME280;25635;51.146;17.162;2022-11-13T08:42:05;101545.45;;;8.48;84.30
38806;BME280;25635;51.146;17.162;2022-11-13T08:44:31;101536.81;;;8.51;83.98
38806;BME280;25635;51.146;17.162;2022-11-13T08:46:57;101537.33;;;8.54;83.96
38806;BME280;25635;51.146;17.162;2022-11-13T08:49:23;101543.52;;;8.59;84.08
38806;BME280;25635;51.146;17.162;2022-11-13T08:51:49;101536.30;;;8.66;84.01
38806;BME280;25635;51.146;17.162;2022-11-13T08:54:15;101535.47;;;8.68;83.77
38806;BME280;25635;51.146;17.162;2022-11-13T08:56:42;101543.69;;;8.66;83.52
38806;BME280;25635;51.146;17.162;2022-11-13T08:59:09;101543.25;;;8.67;83.74
38806;BME280;25635;51.146;17.162;2022-11-13T09:01:36;101546.34;;;8.69;83.68
38806;BME280;25635;51.146;17.162;2022-11-13T09:04:02;101546.38;;;8.71;83.52
38806;BME280;25635;51.146;17.162;2022-11-13T09:06:28;101553.47;;;8.77;83.91
38806;BME280;25635;51.146;17.162;2022-11-13T09:08:54;101549.25;;;8.83;83.60
38806;BME280;25635;51.146;17.162;2022-11-13T09:11:21;101554.55;;;8.88;83.30
38806;BME280;25635;51.146;17.162;2022-11-13T09:13:47;101548.95;;;8.90;83.34
38806;BME280;25635;51.146;17.162;2022-11-13T09:16:13;101548.59;;;8.93;83.36
38806;BME280;25635;51.146;17.162;2022-11-13T09:18:39;101546.47;;;8.96;83.23
38806;BME280;25635;51.146;17.162;2022-11-13T09:21:05;101538.67;;;8.98;83.21
38806;BME280;25635;51.146;17.162;2022-11-13T09:23:31;101547.42;;;9.01;83.41
38806;BME280;25635;51.146;17.162;2022-11-13T09:26:00;101550.55;;;9.05;83.00
38806;BME280;25635;51.146;17.162;2022-11-13T09:28:28;101548.33;;;9.03;82.40
38806;BME280;25635;51.146;17.162;2022-11-13T09:30:55;101551.81;;;9.02;82.38
38806;BME280;25635;51.146;17.162;2022-11-13T09:33:21;101538.80;;;9.04;82.68
38806;BME280;25635;51.146;17.162;2022-11-13T09:35:47;101546.71;;;9.08;82.65
38806;BME280;25635;51.146;17.162;2022-11-13T09:38:14;101545.05;;;9.12;82.56
38806;BME280;25635;51.146;17.162;2022-11-13T09:45:53;101543.91;;;9.21;82.62
38806;BME280;25635;51.146;17.162;2022-11-13T09:51:26;101545.81;;;9.30;82.17
38806;BME280;25635;51.146;17.162;2022-11-13T09:53:54;101544.58;;;9.34;82.18
38806;BME280;25635;51.146;17.162;2022-11-13T09:56:27;101542.44;;;9.36;81.62
38806;BME280;25635;51.146;17.162;2022-11-13T09:59:06;101534.61;;;9.36;81.87
38806;BME280;25635;51.146;17.162;2022-11-13T10:01:51;101538.56;;;9.37;81.69
38806;BME280;25635;51.146;17.162;2022-11-13T10:07:48;101544.18;;;9.35;81.45
38806;BME280;25635;51.146;17.162;2022-11-13T10:10:48;101543.67;;;9.32;81.43
38806;BME280;25635;51.146;17.162;2022-11-13T10:13:43;101535.84;;;9.32;81.48
38806;BME280;25635;51.146;17.162;2022-11-13T10:16:30;101529.86;;;9.38;81.78
38806;BME280;25635;51.146;17.162;2022-11-13T10:19:08;101523.84;;;9.42;81.84
38806;BME280;25635;51.146;17.162;2022-11-13T10:24:43;101526.02;;;9.43;81.33
38806;BME280;25635;51.146;17.162;2022-11-13T10:27:12;101529.94;;;9.41;81.37
38806;BME280;25635;51.146;17.162;2022-11-13T10:29:41;101529.86;;;9.38;81.06
38806;BME280;25635;51.146;17.162;2022-11-13T10:32:25;101521.08;;;9.34;81.21
38806;BME280;25635;51.146;17.162;2022-11-13T10:40:27;101518.75;;;9.26;81.07
38806;BME280;25635;51.146;17.162;2022-11-13T10:46:04;101504.36;;;9.23;81.25
38806;BME280;25635;51.146;17.162;2022-11-13T10:48:31;101504.32;;;9.22;80.81
38806;BME280;25635;51.146;17.162;2022-11-13T10:51:05;101503.77;;;9.15;81.01
38806;BME280;25635;51.146;17.162;2022-11-13T10:53:40;101491.98;;;9.13;81.32
38806;BME280;25635;51.146;17.162;2022-11-13T10:56:31;101492.06;;;9.16;81.49
38806;BME280;25635;51.146;17.162;2022-11-13T10:59:13;101495.19;;;9.22;81.42
38806;BME280;25635;51.146;17.162;2022-11-13T11:01:42;101485.69;;;9.25;81.51
38806;BME280;25635;51.146;17.162;2022-11-13T11:04:24;101490.04;;;9.26;80.99
38806;BME280;25635;51.146;17.162;2022-11-13T11:07:02;101490.51;;;9.27;81.53
38806;BME280;25635;51.146;17.162;2022-11-13T11:09:29;101489.28;;;9.32;81.56
38806;BME280;25635;51.146;17.162;2022-11-13T11:17:45;101484.64;;;9.41;81.27
38806;BME280;25635;51.146;17.162;2022-11-13T11:20:47;101488.19;;;9.44;81.30
38806;BME280;25635;51.146;17.162;2022-11-13T11:23:22;101489.09;;;9.46;81.00
38806;BME280;25635;51.146;17.162;2022-11-13T11:35:52;101477.70;;;9.41;80.69
38806;BME280;25635;51.146;17.162;2022-11-13T11:37:57;101476.38;;;9.40;80.49
38806;BME280;25635;51.146;17.162;2022-11-13T11:40:39;101467.66;;;9.41;80.98
38806;BME280;25635;51.146;17.162;2022-11-13T11:46:12;101455.25;;;9.52;81.04
38806;BME280;25635;51.146;17.162;2022-11-13T11:48:44;101464.93;;;9.58;80.93
38806;BME280;25635;51.146;17.162;2022-11-13T11:51:30;101454.98;;;9.64;81.04
38806;BME280;25635;51.146;17.162;2022-11-13T11:54:36;101456.29;;;9.62;80.15
38806;BME280;25635;51.146;17.162;2022-11-13T11:57:22;101448.36;;;9.58;79.87
38806;BME280;25635;51.146;17.162;2022-11-13T12:00:05;101446.08;;;9.51;79.93
38806;BME280;25635;51.146;17.162;2022-11-13T12:08:20;101436.84;;;9.45;79.53
38806;BME280;25635;51.146;17.162;2022-11-13T12:26:25;101418.28;;;9.28;80.21
38806;BME280;25635;51.146;17.162;2022-11-13T12:29:20;101414.37;;;9.28;80.30
38806;BME280;25635;51.146;17.162;2022-11-13T12:34:57;101412.99;;;9.23;80.35
38806;BME280;25635;51.146;17.162;2022-11-13T12:37:32;101411.58;;;9.17;80.50
38806;BME280;25635;51.146;17.162;2022-11-13T12:40:04;101413.25;;;9.12;80.44
38806;BME280;25635;51.146;17.162;2022-11-13T12:42:41;101407.92;;;9.07;80.05
38806;BME280;25635;51.146;17.162;2022-11-13T12:48:06;101405.20;;;9.00;80.66
38806;BME280;25635;51.146;17.162;2022-11-13T12:50:36;101402.99;;;8.99;80.63
38806;BME280;25635;51.146;17.162;2022-11-13T12:53:05;101400.38;;;8.99;80.68
38806;BME280;25635;51.146;17.162;2022-11-13T12:55:36;101397.30;;;8.97;80.58
38806;BME280;25635;51.146;17.162;2022-11-13T13:01:00;101390.16;;;8.86;80.59
38806;BME280;25635;51.146;17.162;2022-11-13T13:15:39;101368.81;;;8.84;80.91
38806;BME280;25635;51.146;17.162;2022-11-13T13:23:38;101361.86;;;8.84;81.54
38806;BME280;25635;51.146;17.162;2022-11-13T13:26:18;101357.08;;;8.84;81.37
38806;BME280;25635;51.146;17.162;2022-11-13T13:28:51;101348.81;;;8.84;81.28
38806;BME280;25635;51.146;17.162;2022-11-13T13:31:35;101353.56;;;8.82;81.02
38806;BME280;25635;51.146;17.162;2022-11-13T13:34:28;101350.02;;;8.78;80.91
38806;BME280;25635;51.146;17.162;2022-11-13T13:46:21;101337.88;;;8.80;81.09
38806;BME280;25635;51.146;17.162;2022-11-13T13:48:56;101342.63;;;8.78;80.96
38806;BME280;25635;51.146;17.162;2022-11-13T13:51:46;101345.55;;;8.71;80.88
38806;BME280;25635;51.146;17.162;2022-11-13T13:54:11;101343.27;;;8.64;80.98
38806;BME280;25635;51.146;17.162;2022-11-13T13:56:44;101344.10;;;8.63;81.05
38806;BME280;25635;51.146;17.162;2022-11-13T13:59:17;101334.89;;;8.59;81.11
38806;BME280;25635;51.146;17.162;2022-11-13T14:01:57;101333.55;;;8.56;81.24
38806;BME280;25635;51.146;17.162;2022-11-13T14:04:24;101332.64;;;8.54;81.32
38806;BME280;25635;51.146;17.162;2022-11-13T14:06:55;101336.52;;;8.52;81.40
38806;BME280;25635;51.146;17.162;2022-11-13T14:09:25;101334.31;;;8.50;81.38
38806;BME280;25635;51.146;17.162;2022-11-13T14:14:26;101331.91;;;8.40;81.34
38806;BME280;25635;51.146;17.162;2022-11-13T14:16:54;101326.97;;;8.30;81.39
38806;BME280;25635;51.146;17.162;2022-11-13T14:19:23;101332.06;;;8.24;81.46
38806;BME280;25635;51.146;17.162;2022-11-13T14:21:53;101326.29;;;8.19;81.59
38806;BME280;25635;51.146;17.162;2022-11-13T14:24:24;101327.11;;;8.16;81.68
38806;BME280;25635;51.146;17.162;2022-11-13T14:26:54;101335.77;;;8.15;81.71
38806;BME280;25635;51.146;17.162;2022-11-13T14:29:36;101334.45;;;8.14;81.76
38806;BME280;25635;51.146;17.162;2022-11-13T14:32:10;101333.55;;;8.11;81.76
38806;BME280;25635;51.146;17.162;2022-11-13T14:34:44;101330.82;;;8.07;81.78
38806;BME280;25635;51.146;17.162;2022-11-13T14:39:53;101324.44;;;7.92;81.88
38806;BME280;25635;51.146;17.162;2022-11-13T14:42:29;101319.92;;;7.82;82.04
38806;BME280;25635;51.146;17.162;2022-11-13T14:45:24;101322.39;;;7.76;82.16
38806;BME280;25635;51.146;17.162;2022-11-13T14:50:32;101325.65;;;7.67;82.34
38806;BME280;25635;51.146;17.162;2022-11-13T14:53:02;101327.72;;;7.62;82.43
38806;BME280;25635;51.146;17.162;2022-11-13T14:55:36;101322.42;;;7.59;82.52
38806;BME280;25635;51.146;17.162;2022-11-13T14:58:04;101325.84;;;7.56;82.53
38806;BME280;25635;51.146;17.162;2022-11-13T15:00:33;101323.63;;;7.54;82.59
38806;BME280;25635;51.146;17.162;2022-11-13T15:03:02;101320.07;;;7.50;82.75
38806;BME280;25635;51.146;17.162;2022-11-13T15:05:30;101322.15;;;7.46;82.84
38806;BME280;25635;51.146;17.162;2022-11-13T15:07:58;101318.10;;;7.40;82.79
38806;BME280;25635;51.146;17.162;2022-11-13T15:10:26;101312.37;;;7.36;82.93
38806;BME280;25635;51.146;17.162;2022-11-13T15:12:53;101316.60;;;7.31;82.86
38806;BME280;25635;51.146;17.162;2022-11-13T15:15:26;101312.22;;;7.28;82.98
38806;BME280;25635;51.146;17.162;2022-11-13T15:17:51;101317.76;;;7.25;82.98
38806;BME280;25635;51.146;17.162;2022-11-13T15:20:23;101316.80;;;7.21;82.95
38806;BME280;25635;51.146;17.162;2022-11-13T15:22:51;101310.19;;;7.17;82.98
38806;BME280;25635;51.146;17.162;2022-11-13T15:25:20;101308.79;;;7.12;83.00
38806;BME280;25635;51.146;17.162;2022-11-13T15:27:47;101303.39;;;7.04;83.07
38806;BME280;25635;51.146;17.162;2022-11-13T15:30:14;101300.20;;;6.97;83.19
38806;BME280;25635;51.146;17.162;2022-11-13T15:32:41;101297.41;;;6.89;83.32
38806;BME280;25635;51.146;17.162;2022-11-13T15:35:14;101292.91;;;6.82;83.42
38806;BME280;25635;51.146;17.162;2022-11-13T15:37:45;101291.45;;;6.76;83.59
38806;BME280;25635;51.146;17.162;2022-11-13T15:40:13;101296.11;;;6.72;83.76